Time;durP1;ratioP1;P1;durP2;ratioP2;P2;SDS_P1;SDS_P2;PMS_P1;PMS_P2;Temp;Humidity;BMP_temperature;BMP_pressure;BME280_temperature;BME280_humidity;BME280_pressure;Samples;Min_cycle;Max_cycle;Signal;HPM_P1;HPM_P2
2023/10/25 00:00:55;;;;;;;11.52;1.90;;;;;;;21.68;65.48;95918.25;5094385;28;20027;-30
2023/10/25 00:03:21;;;;;;;11.02;1.65;;;;;;;21.55;65.46;95925.59;5094399;28;20048;-30
2023/10/25 00:05:46;;;;;;;10.30;1.70;;;;;;;21.74;64.96;95923.72;5095104;28;20032;-30
2023/10/25 00:08:11;;;;;;;12.27;1.95;;;;;;;21.54;65.28;95924.09;5094459;28;20467;-30
2023/10/25 00:10:37;;;;;;;7.90;2.03;;;;;;;21.56;65.57;95927.84;5094212;28;20487;-30
2023/10/25 00:13:03;;;;;;;9.00;1.50;;;;;;;21.47;65.87;95912.38;5094524;28;20168;-30
2023/10/25 00:15:29;;;;;;;9.95;1.85;;;;;;;21.59;65.34;95917.81;5093917;28;20055;-30
2023/10/25 00:17:54;;;;;;;20.10;1.70;;;;;;;21.65;64.78;95908.22;5094138;28;20056;-30
2023/10/25 00:20:20;;;;;;;7.60;1.60;;;;;;;21.67;65.07;95916.75;5094122;28;20024;-30
2023/10/25 00:22:45;;;;;;;14.93;1.98;;;;;;;21.64;65.12;95915.00;5094138;28;20095;-30
2023/10/25 00:25:10;;;;;;;12.93;1.60;;;;;;;21.68;64.95;95918.25;5101359;28;20110;-30
2023/10/25 00:27:36;;;;;;;10.18;1.27;;;;;;;21.65;64.92;95918.50;5097490;28;20027;-30
2023/10/25 00:30:02;;;;;;;12.75;2.05;;;;;;;21.68;65.02;95918.25;5097504;28;20034;-30
2023/10/25 00:32:27;;;;;;;9.15;1.60;;;;;;;21.61;65.38;95923.56;5094085;28;20028;-30
2023/10/25 00:34:52;;;;;;;11.43;1.42;;;;;;;21.62;64.71;95923.06;5094006;28;20028;-30
2023/10/25 00:37:18;;;;;;;10.57;2.17;;;;;;;21.55;65.39;95931.88;5094092;28;20035;-30
2023/10/25 00:39:43;;;;;;;9.25;1.55;;;;;;;21.39;65.63;95918.91;5093845;28;20459;-30
2023/10/25 00:42:09;;;;;;;11.18;1.73;;;;;;;21.61;64.70;95912.53;5101528;28;20408;-30
2023/10/25 00:44:34;;;;;;;8.05;1.50;;;;;;;21.49;65.24;95909.09;5093883;28;20493;-30
2023/10/25 00:47:00;;;;;;;8.00;1.48;;;;;;;21.64;64.42;95906.72;5093539;28;20379;-30
2023/10/25 00:49:26;;;;;;;9.48;1.85;;;;;;;21.54;64.91;95902.78;5093794;28;20064;-30
2023/10/25 00:51:52;;;;;;;11.35;1.75;;;;;;;21.37;65.61;95905.66;5093498;28;20034;-30
2023/10/25 00:54:18;;;;;;;9.30;1.80;;;;;;;21.57;64.92;95906.53;5093734;28;20040;-30
2023/10/25 00:56:45;;;;;;;8.98;2.10;;;;;;;21.52;64.65;95902.53;5093777;28;20062;-30
2023/10/25 00:59:12;;;;;;;12.23;1.85;;;;;;;21.50;64.77;95896.81;5093662;28;20099;-30
2023/10/25 01:01:40;;;;;;;7.90;1.60;;;;;;;21.49;64.75;95893.28;5093877;28;20020;-30
2023/10/25 01:04:06;;;;;;;9.18;1.50;;;;;;;21.38;65.10;95887.84;5101457;28;20027;-30
2023/10/25 01:06:31;;;;;;;12.77;1.77;;;;;;;21.56;64.24;95885.72;5092174;28;20091;-30
2023/10/25 01:08:57;;;;;;;9.50;1.40;;;;;;;21.54;64.91;95875.19;5094113;28;20028;-30
2023/10/25 01:11:22;;;;;;;11.55;1.83;;;;;;;21.43;65.15;95870.50;5093882;28;20016;-30
2023/10/25 01:13:48;;;;;;;7.55;1.15;;;;;;;21.41;64.72;95872.25;5093380;28;20471;-31
2023/10/25 01:16:13;;;;;;;7.88;1.90;;;;;;;21.51;64.73;95867.94;5093385;28;20020;-30
2023/10/25 01:18:39;;;;;;;12.63;1.73;;;;;;;21.51;64.82;95862.44;5093328;28;20378;-30
2023/10/25 01:21:05;;;;;;;8.65;1.35;;;;;;;21.59;64.11;95857.84;5093785;28;20060;-30
2023/10/25 01:23:30;;;;;;;12.30;1.88;;;;;;;21.51;64.61;95865.19;5093518;28;20031;-30
2023/10/25 01:25:55;;;;;;;10.80;2.13;;;;;;;21.36;64.95;95860.03;5093357;28;20024;-32
2023/10/25 01:28:21;;;;;;;9.93;1.50;;;;;;;21.27;65.33;95856.81;5093270;28;20020;-30
2023/10/25 01:30:47;;;;;;;12.13;1.65;;;;;;;21.42;64.57;95852.44;5093267;28;20481;-31
2023/10/25 01:33:12;;;;;;;8.30;1.42;;;;;;;21.40;64.66;95854.22;5093523;28;20070;-31
2023/10/25 01:35:38;;;;;;;9.73;1.50;;;;;;;21.40;64.52;95854.22;5093077;28;20115;-30
2023/10/25 01:38:04;;;;;;;8.68;1.38;;;;;;;21.50;64.23;95852.66;5093538;28;20086;-30
2023/10/25 01:40:29;;;;;;;10.73;1.90;;;;;;;21.40;64.54;95843.94;5099270;28;20020;-31
2023/10/25 01:42:55;;;;;;;7.22;1.52;;;;;;;21.37;64.62;95846.97;5093239;28;20028;-30
2023/10/25 01:45:27;;;;;;;10.93;1.65;;;;;;;21.42;64.31;95848.94;5092918;28;20023;-31
2023/10/25 01:47:52;;;;;;;9.73;2.38;;;;;;;21.32;64.60;95856.78;5093356;28;20024;-30
2023/10/25 01:50:19;;;;;;;11.73;1.25;;;;;;;21.37;64.08;95852.50;5099831;28;20020;-30
2023/10/25 01:52:44;;;;;;;10.05;1.50;;;;;;;21.41;64.59;95848.19;5093596;28;20040;-30
2023/10/25 01:55:09;;;;;;;10.18;1.50;;;;;;;21.49;64.24;95848.41;5093386;28;20030;-30
2023/10/25 01:57:35;;;;;;;10.15;1.50;;;;;;;21.56;63.62;95845.06;5093428;28;20012;-31
2023/10/25 02:00:06;;;;;;;7.43;0.90;;;;;;;21.48;64.14;95849.66;5096927;28;20378;-30
2023/10/25 02:02:32;;;;;;;7.72;1.70;;;;;;;21.36;64.49;95854.50;5096701;28;20448;-30
2023/10/25 02:04:58;;;;;;;7.68;1.77;;;;;;;21.40;64.33;95845.94;5097534;28;20111;-30
2023/10/25 02:07:23;;;;;;;12.63;1.92;;;;;;;21.48;64.26;95849.66;5096656;28;20098;-30
2023/10/25 02:09:49;;;;;;;8.90;1.15;;;;;;;21.41;64.22;95839.91;5096618;28;20020;-31
2023/10/25 02:12:14;;;;;;;9.95;1.30;;;;;;;21.37;64.14;95841.47;5095213;28;20012;-30
2023/10/25 02:14:40;;;;;;;7.55;1.17;;;;;;;21.32;64.43;95843.00;5096660;28;20027;-31
2023/10/25 02:17:05;;;;;;;9.25;1.27;;;;;;;21.37;64.18;95838.72;5096709;28;20078;-30
2023/10/25 02:19:31;;;;;;;9.40;1.45;;;;;;;21.31;64.21;95832.47;5100588;28;20031;-30
2023/10/25 02:21:58;;;;;;;16.48;1.65;;;;;;;21.31;63.88;95824.94;5097909;28;20027;-31
2023/10/25 02:24:23;;;;;;;8.85;1.20;;;;;;;21.26;63.64;95823.00;5096517;28;20028;-30
2023/10/25 02:26:50;;;;;;;10.32;1.88;;;;;;;21.31;64.03;95815.91;5096247;28;20061;-30
2023/10/25 02:29:15;;;;;;;14.00;2.03;;;;;;;21.37;63.57;95822.16;5096507;28;20052;-30
2023/10/25 02:31:41;;;;;;;7.43;1.65;;;;;;;21.49;63.46;95818.06;5096417;28;20074;-30
2023/10/25 02:34:06;;;;;;;8.70;0.90;;;;;;;21.35;63.15;95813.63;5103325;28;20436;-30
2023/10/25 02:36:32;;;;;;;8.55;1.73;;;;;;;21.35;63.44;95813.63;5095969;28;20023;-30
2023/10/25 02:38:58;;;;;;;10.73;1.88;;;;;;;21.37;62.98;95811.88;5096013;28;20353;-30
2023/10/25 02:41:23;;;;;;;9.35;1.42;;;;;;;21.27;63.34;95813.44;5096170;28;20112;-30
2023/10/25 02:43:53;;;;;;;7.90;1.50;;;;;;;21.22;63.85;95799.69;5095826;28;20020;-30
2023/10/25 02:46:19;;;;;;;10.50;1.95;;;;;;;21.36;63.35;95788.31;5102992;28;20090;-30
2023/10/25 02:48:45;;;;;;;9.73;1.58;;;;;;;21.41;62.96;95795.03;5096152;28;20024;-30
2023/10/25 02:51:10;;;;;;;9.55;1.70;;;;;;;21.40;63.04;95793.53;5095654;28;20022;-30
2023/10/25 02:53:36;;;;;;;5.03;0.82;;;;;;;21.46;62.85;95797.00;5095891;28;20131;-30
2023/10/25 02:56:06;;;;;;;9.07;1.27;;;;;;;21.21;63.45;95793.44;5095734;28;20050;-30
2023/10/25 02:58:32;;;;;;;8.82;1.48;;;;;;;21.35;63.23;95791.56;5095701;28;20016;-30
2023/10/25 03:00:58;;;;;;;9.20;1.40;;;;;;;21.30;63.41;95803.38;5103255;28;20095;-30
2023/10/25 03:03:34;;;;;;;8.77;1.10;;;;;;;21.17;63.76;95796.41;5095783;28;20030;-31
2023/10/25 03:06:00;;;;;;;7.32;0.95;;;;;;;21.08;64.06;95796.00;5094876;28;20089;-30
2023/10/25 03:08:27;;;;;;;7.20;1.40;;;;;;;21.37;63.08;95789.81;5095231;28;20016;-31
2023/10/25 03:10:53;;;;;;;9.80;1.52;;;;;;;21.26;63.39;95795.41;5095685;28;20054;-30
2023/10/25 03:13:18;;;;;;;8.35;1.13;;;;;;;21.18;63.78;95794.41;5095824;28;20062;-30
2023/10/25 03:15:44;;;;;;;7.47;1.35;;;;;;;21.30;63.48;95793.09;5095513;28;20073;-30
2023/10/25 03:18:10;;;;;;;6.53;1.25;;;;;;;21.02;64.32;95798.78;5095701;28;20059;-30
2023/10/25 03:20:35;;;;;;;7.18;1.20;;;;;;;21.22;63.52;95794.94;5095196;28;20398;-30
2023/10/25 03:23:01;;;;;;;9.25;1.50;;;;;;;21.31;63.67;95791.84;5095286;28;20027;-30
2023/10/25 03:25:26;;;;;;;6.00;1.05;;;;;;;21.28;63.94;95795.63;5095438;28;20367;-30
2023/10/25 03:27:52;;;;;;;8.70;1.45;;;;;;;21.21;64.09;95792.69;5095052;28;20032;-30
2023/10/25 03:30:18;;;;;;;13.55;2.08;;;;;;;21.29;63.81;95793.63;5095322;28;20020;-30
2023/10/25 03:32:43;;;;;;;9.50;1.08;;;;;;;21.32;63.71;95792.59;5094916;28;20107;-30
2023/10/25 03:35:10;;;;;;;10.05;1.65;;;;;;;21.03;64.62;95791.25;5094915;28;20024;-30
2023/10/25 03:37:39;;;;;;;7.68;1.20;;;;;;;21.15;64.29;95787.91;5108537;28;20444;-30
2023/10/25 03:40:09;;;;;;;10.18;1.77;;;;;;;21.33;63.63;95785.81;5094937;28;20050;-30
2023/10/25 03:42:35;;;;;;;6.25;1.08;;;;;;;21.29;63.28;95777.06;5095062;28;20483;-30
2023/10/25 03:45:01;;;;;;;8.02;1.45;;;;;;;21.26;63.24;95778.09;5099305;28;20099;-30
2023/10/25 03:47:27;;;;;;;6.80;1.20;;;;;;;21.28;63.03;95781.84;5098097;28;20122;-30
2023/10/25 03:49:53;;;;;;;7.78;1.15;;;;;;;21.22;63.34;95772.13;5094604;28;20095;-30
2023/10/25 03:52:18;;;;;;;10.48;1.20;;;;;;;21.24;63.00;95775.13;5094798;28;20015;-30
2023/10/25 03:54:43;;;;;;;5.07;1.00;;;;;;;21.26;62.84;95776.09;5095605;28;20076;-31
2023/10/25 03:57:09;;;;;;;6.65;1.00;;;;;;;21.02;63.40;95771.19;5100986;28;20463;-30
2023/10/25 03:59:34;;;;;;;9.48;1.30;;;;;;;21.11;63.21;95776.44;5094678;28;20027;-30
2023/10/25 04:02:00;;;;;;;6.60;1.17;;;;;;;21.21;62.99;95773.38;5094318;28;20100;-30
2023/10/25 04:04:25;;;;;;;5.63;0.88;;;;;;;21.24;62.80;95769.59;5094700;28;20027;-30
2023/10/25 04:06:51;;;;;;;7.43;0.95;;;;;;;21.06;62.90;95777.19;5094508;28;20031;-30
2023/10/25 04:09:16;;;;;;;8.15;1.15;;;;;;;21.25;62.87;95774.59;5094559;28;20027;-31
2023/10/25 04:11:42;;;;;;;7.70;1.33;;;;;;;21.10;62.79;95771.41;5094621;28;20028;-30
2023/10/25 04:14:07;;;;;;;5.80;1.17;;;;;;;21.08;63.04;95777.44;5094148;28;20137;-30
2023/10/25 04:16:32;;;;;;;9.85;2.00;;;;;;;21.15;62.71;95779.63;5094216;28;20024;-30
2023/10/25 04:19:01;;;;;;;10.00;1.30;;;;;;;21.12;62.99;95774.41;5094396;28;20024;-30
2023/10/25 04:21:26;;;;;;;8.30;1.25;;;;;;;21.16;62.89;95780.38;5093593;28;20103;-30
2023/10/25 04:23:52;;;;;;;9.45;1.25;;;;;;;20.98;63.17;95781.78;5093983;28;20107;-30
2023/10/25 04:26:17;;;;;;;6.30;1.00;;;;;;;21.12;62.80;95775.16;5101363;28;20045;-30
2023/10/25 04:28:44;;;;;;;6.60;1.10;;;;;;;21.27;62.27;95771.31;5101204;28;20080;-30
2023/10/25 04:31:10;;;;;;;3.38;1.38;;;;;;;21.34;62.27;95779.03;5093946;28;20024;-31
2023/10/25 04:33:39;;;;;;;8.98;1.63;;;;;;;21.32;62.44;95774.03;5093965;28;20532;-30
2023/10/25 04:36:05;;;;;;;4.13;0.77;;;;;;;21.18;62.73;95780.63;5101256;28;20060;-30
2023/10/25 04:38:32;;;;;;;5.53;1.30;;;;;;;21.00;63.43;95770.25;5101292;28;20049;-30
2023/10/25 04:40:58;;;;;;;6.35;0.90;;;;;;;21.12;62.79;95772.41;5094095;28;20016;-30
2023/10/25 04:43:23;;;;;;;5.10;1.10;;;;;;;21.17;62.62;95766.09;5093929;28;20028;-30
2023/10/25 04:45:51;;;;;;;9.75;1.38;;;;;;;21.12;62.68;95766.91;5094428;28;20027;-30
2023/10/25 04:48:17;;;;;;;10.15;1.17;;;;;;;21.20;62.62;95769.13;5093711;28;20076;-30
2023/10/25 04:50:43;;;;;;;10.77;1.58;;;;;;;21.10;62.73;95761.13;5095202;28;20118;-30
2023/10/25 04:53:08;;;;;;;6.57;1.20;;;;;;;21.05;63.20;95759.16;5099682;28;20039;-30
2023/10/25 04:55:34;;;;;;;9.57;1.30;;;;;;;21.19;62.87;95764.88;5094177;28;20027;-30
2023/10/25 04:58:00;;;;;;;10.45;1.38;;;;;;;21.14;63.17;95761.59;5093647;28;20028;-31
2023/10/25 05:00:27;;;;;;;6.63;1.58;;;;;;;21.16;62.88;95770.09;5093648;28;20103;-30
2023/10/25 05:02:53;;;;;;;8.98;1.40;;;;;;;21.04;63.30;95773.44;5093432;28;20020;-31
2023/10/25 05:05:19;;;;;;;18.25;2.85;;;;;;;21.17;63.08;95773.63;5094062;28;20494;-30
2023/10/25 05:07:46;;;;;;;6.93;1.00;;;;;;;21.29;62.54;95783.34;5093937;28;20375;-30
2023/10/25 05:10:12;;;;;;;4.28;1.27;;;;;;;21.22;62.56;95785.91;5101282;28;20016;-30
2023/10/25 05:12:47;;;;;;;6.70;1.25;;;;;;;21.00;63.58;95784.03;5093722;28;20047;-30
2023/10/25 05:15:17;;;;;;;7.05;1.20;;;;;;;21.13;63.19;95776.66;5093622;28;20024;-30
2023/10/25 05:17:44;;;;;;;4.95;1.20;;;;;;;21.10;63.04;95772.16;5093827;28;20012;-30
2023/10/25 05:20:11;;;;;;;6.53;1.73;;;;;;;21.10;63.12;95768.66;5093665;28;20499;-31
2023/10/25 05:22:39;;;;;;;8.60;1.05;;;;;;;21.17;62.61;95777.13;5093256;28;20035;-30
2023/10/25 05:25:07;;;;;;;6.55;1.05;;;;;;;21.09;63.16;95772.69;5093573;28;20020;-30
2023/10/25 05:27:33;;;;;;;8.25;1.15;;;;;;;21.17;62.65;95779.13;5093311;28;20023;-30
2023/10/25 05:30:03;;;;;;;6.00;1.00;;;;;;;21.13;62.85;95771.16;5093341;28;20020;-30
2023/10/25 05:32:30;;;;;;;6.88;1.40;;;;;;;21.13;63.03;95771.16;5095428;28;20447;-30
2023/10/25 05:34:57;;;;;;;10.95;1.23;;;;;;;21.00;63.47;95765.47;5097741;28;20380;-30
2023/10/25 05:37:23;;;;;;;7.57;1.35;;;;;;;21.14;63.24;95769.88;5097389;28;20020;-31
2023/10/25 05:39:49;;;;;;;7.80;1.17;;;;;;;21.28;62.69;95770.81;5097387;28;20016;-30
2023/10/25 05:42:19;;;;;;;7.32;1.05;;;;;;;21.11;63.45;95762.63;5096950;28;20030;-30
2023/10/25 05:44:46;;;;;;;8.27;1.17;;;;;;;21.06;63.67;95762.66;5104946;28;20417;-31
2023/10/25 05:47:11;;;;;;;10.63;1.85;;;;;;;20.96;64.38;95759.47;5097837;28;20027;-31
2023/10/25 05:49:37;;;;;;;5.47;1.30;;;;;;;21.02;63.98;95765.69;5097487;28;20020;-30
2023/10/25 05:52:03;;;;;;;9.85;1.83;;;;;;;21.04;64.32;95762.41;5096965;28;20068;-30
2023/10/25 05:54:29;;;;;;;6.97;1.60;;;;;;;21.05;64.47;95766.69;5096666;28;20036;-30
2023/10/25 05:56:54;;;;;;;9.07;1.90;;;;;;;21.09;64.05;95770.66;5097033;28;20028;-30
2023/10/25 05:59:20;;;;;;;6.85;1.40;;;;;;;20.96;64.49;95778.78;5096876;28;20020;-30
2023/10/25 06:01:49;;;;;;;5.18;1.20;;;;;;;21.10;64.06;95772.16;5097159;28;20023;-30
2023/10/25 06:04:15;;;;;;;3.67;1.02;;;;;;;21.24;63.77;95780.63;5097019;28;20040;-30
2023/10/25 06:06:43;;;;;;;6.93;1.23;;;;;;;21.18;63.73;95783.38;5096811;28;20106;-30
2023/10/25 06:09:10;;;;;;;6.68;1.10;;;;;;;21.11;63.99;95779.19;5104494;28;20170;-30
2023/10/25 06:11:37;;;;;;;5.10;1.05;;;;;;;21.22;63.82;95785.91;5096677;28;20386;-30
2023/10/25 06:14:03;;;;;;;10.63;1.67;;;;;;;21.04;64.50;95790.00;5096974;28;20024;-30
2023/10/25 06:16:29;;;;;;;8.77;1.30;;;;;;;21.09;64.66;95789.97;5096798;28;20027;-30
2023/10/25 06:18:54;;;;;;;5.68;1.20;;;;;;;21.02;64.57;95793.25;5096352;28;20020;-30
2023/10/25 06:21:20;;;;;;;7.40;1.40;;;;;;;20.99;65.11;95783.28;5097044;28;20034;-30
2023/10/25 06:23:45;;;;;;;9.27;1.30;;;;;;;20.97;64.98;95791.28;5096139;28;20032;-30
2023/10/25 06:26:10;;;;;;;8.95;1.10;;;;;;;21.05;65.11;95797.00;5096426;28;20020;-30
2023/10/25 06:28:36;;;;;;;11.65;1.67;;;;;;;21.20;64.72;95804.97;5096387;28;20024;-30
2023/10/25 06:31:02;;;;;;;7.13;1.30;;;;;;;20.91;65.96;95804.34;5096302;28;20037;-30
2023/10/25 06:33:27;;;;;;;9.30;1.73;;;;;;;20.87;66.09;95803.88;5103621;28;20060;-30
2023/10/25 06:35:58;;;;;;;7.68;1.33;;;;;;;20.87;66.03;95803.88;5096037;28;20440;-30
2023/10/25 06:38:23;;;;;;;6.53;1.10;;;;;;;20.93;66.02;95803.84;5096208;28;20027;-30
2023/10/25 06:40:49;;;;;;;7.15;1.25;;;;;;;21.08;65.55;95802.25;5095997;28;20012;-30
2023/10/25 06:43:15;;;;;;;9.75;1.55;;;;;;;20.89;66.49;95806.88;5102586;28;20399;-30
2023/10/25 06:45:41;;;;;;;9.90;1.17;;;;;;;21.07;66.11;95809.03;5097960;28;20047;-31
2023/10/25 06:48:07;;;;;;;8.57;1.63;;;;;;;21.12;65.69;95808.25;5101417;28;20019;-30
2023/10/25 06:50:32;;;;;;;6.75;1.38;;;;;;;21.15;65.64;95809.97;5095932;28;20019;-30
2023/10/25 06:52:58;;;;;;;5.47;0.95;;;;;;;21.10;65.99;95808.00;5095389;28;20393;-30
2023/10/25 06:55:25;;;;;;;6.78;1.30;;;;;;;21.11;66.00;95811.50;5095721;28;20099;-30
2023/10/25 06:57:51;;;;;;;9.02;1.30;;;;;;;21.07;65.92;95816.53;5096299;28;20032;-30
2023/10/25 07:00:17;;;;;;;5.90;1.33;;;;;;;21.21;65.63;95815.50;5096004;28;20068;-30
2023/10/25 07:02:51;;;;;;;12.18;1.30;;;;;;;21.07;66.06;95811.78;5095570;28;20028;-32
2023/10/25 07:05:19;;;;;;;4.35;1.13;;;;;;;21.15;66.09;95821.00;5095639;28;20024;-30
2023/10/25 07:07:49;;;;;;;11.48;1.35;;;;;;;21.18;66.23;95810.97;5095416;28;20024;-30
2023/10/25 07:10:15;;;;;;;9.60;2.00;;;;;;;20.98;66.66;95814.84;5095549;28;20447;-30
2023/10/25 07:12:40;;;;;;;6.70;1.40;;;;;;;20.96;67.30;95817.38;5095761;28;20028;-30
2023/10/25 07:15:06;;;;;;;4.85;1.60;;;;;;;21.11;66.28;95812.25;5096004;28;20030;-30
2023/10/25 07:17:32;;;;;;;8.18;1.25;;;;;;;21.13;66.51;95811.75;5095161;28;20077;-30
2023/10/25 07:20:01;;;;;;;9.60;1.67;;;;;;;21.20;66.29;95816.00;5095356;28;20023;-30
2023/10/25 07:22:27;;;;;;;6.22;1.50;;;;;;;21.37;65.87;95813.88;5095039;28;20081;-30
2023/10/25 07:24:53;;;;;;;6.00;1.52;;;;;;;21.10;66.60;95810.00;5095075;28;20027;-30
2023/10/25 07:27:19;;;;;;;7.10;1.58;;;;;;;21.04;67.18;95815.56;5095693;28;20027;-30
2023/10/25 07:29:44;;;;;;;8.40;1.83;;;;;;;21.15;66.75;95814.72;5095290;28;20126;-30
2023/10/25 07:32:09;;;;;;;8.45;1.90;;;;;;;21.10;67.14;95816.28;5095165;28;20111;-30
2023/10/25 07:34:35;;;;;;;6.38;1.60;;;;;;;21.11;67.03;95825.31;5094852;28;20081;-30
2023/10/25 07:37:00;;;;;;;10.90;1.67;;;;;;;21.20;66.98;95816.00;5094945;28;20054;-30
2023/10/25 07:39:26;;;;;;;5.95;1.52;;;;;;;21.22;66.81;95825.25;5095326;28;20020;-31
2023/10/25 07:41:51;;;;;;;7.57;2.08;;;;;;;21.21;66.84;95825.78;5095054;28;20044;-30
2023/10/25 07:44:17;;;;;;;10.38;1.92;;;;;;;21.12;67.02;95827.56;5094810;28;20425;-30
2023/10/25 07:46:42;;;;;;;7.43;1.95;;;;;;;21.14;67.28;95833.28;5095415;28;20030;-31
2023/10/25 07:49:08;;;;;;;6.85;1.30;;;;;;;21.20;67.04;95833.28;5094643;28;20090;-30
2023/10/25 07:51:33;;;;;;;9.43;1.65;;;;;;;21.17;66.79;95839.78;5094754;28;20062;-30
2023/10/25 07:53:59;;;;;;;8.65;1.42;;;;;;;21.19;67.02;95836.56;5094458;28;20074;-30
2023/10/25 07:56:24;;;;;;;10.27;1.92;;;;;;;21.28;66.94;95836.25;5093983;28;20020;-30
2023/10/25 07:58:50;;;;;;;4.80;1.38;;;;;;;21.23;67.19;95839.81;5094628;28;20107;-30
2023/10/25 08:01:15;;;;;;;8.27;1.20;;;;;;;21.16;67.17;95839.03;5094565;28;20028;-30
2023/10/25 08:03:42;;;;;;;9.38;1.58;;;;;;;21.25;67.06;95834.53;5092917;28;20020;-30
2023/10/25 08:06:07;;;;;;;7.65;1.48;;;;;;;21.18;67.42;95827.50;5094503;28;20024;-30
2023/10/25 08:08:33;;;;;;;6.88;1.50;;;;;;;21.32;66.76;95831.22;5094834;28;20464;-30
2023/10/25 08:11:04;;;;;;;8.52;1.73;;;;;;;21.27;67.41;95837.50;5095232;28;20024;-30
2023/10/25 08:13:30;;;;;;;5.57;1.10;;;;;;;21.27;67.30;95840.25;5100195;28;20012;-30
2023/10/25 08:16:00;;;;;;;7.13;1.40;;;;;;;21.28;67.77;95841.75;5092905;28;20044;-30
2023/10/25 08:18:30;;;;;;;7.68;1.45;;;;;;;21.46;66.88;95832.88;5094049;28;20036;-30
2023/10/25 08:20:56;;;;;;;7.05;2.05;;;;;;;21.33;67.20;95832.72;5094060;28;20031;-30
2023/10/25 08:23:22;;;;;;;11.35;1.90;;;;;;;21.43;66.70;95833.88;5101321;28;20043;-31
2023/10/25 08:25:48;;;;;;;10.15;1.67;;;;;;;21.40;67.09;95843.19;5094318;28;20028;-30
2023/10/25 08:28:14;;;;;;;5.03;1.35;;;;;;;21.43;66.77;95833.88;5094480;28;20098;-30
2023/10/25 08:30:40;;;;;;;8.80;1.23;;;;;;;21.43;66.96;95842.91;5093984;28;20472;-30
2023/10/25 08:33:05;;;;;;;8.00;1.30;;;;;;;21.32;66.88;95836.72;5094034;28;20020;-30
2023/10/25 08:35:31;;;;;;;7.65;1.40;;;;;;;21.50;65.93;95836.84;5094052;28;20024;-30
2023/10/25 08:37:56;;;;;;;5.40;1.10;;;;;;;21.51;66.31;95832.09;5098969;28;20156;-30
2023/10/25 08:40:24;;;;;;;6.00;1.20;;;;;;;21.44;66.25;95844.41;5096007;28;20072;-30
2023/10/25 08:42:50;;;;;;;12.23;1.95;;;;;;;21.46;66.49;95839.13;5093900;28;20526;-30
2023/10/25 08:45:16;;;;;;;7.53;1.05;;;;;;;21.49;66.13;95837.38;5093830;28;20067;-30
2023/10/25 08:47:42;;;;;;;7.93;1.30;;;;;;;21.39;65.85;95855.47;5094176;28;20367;-31
2023/10/25 08:50:08;;;;;;;9.55;1.92;;;;;;;21.38;66.56;95843.72;5093891;28;20020;-30
2023/10/25 08:52:36;;;;;;;12.13;1.40;;;;;;;21.24;67.13;95855.09;5100979;28;20027;-30
2023/10/25 08:55:01;;;;;;;10.00;1.77;;;;;;;21.47;65.61;95853.69;5094023;28;20020;-31
2023/10/25 08:57:29;;;;;;;8.30;1.92;;;;;;;21.55;65.29;95859.38;5093727;28;20027;-30
2023/10/25 08:59:55;;;;;;;8.70;1.30;;;;;;;21.44;65.74;95860.97;5093596;28;20019;-30
2023/10/25 09:02:20;;;;;;;8.25;1.80;;;;;;;21.33;65.93;95854.78;5093632;28;20038;-31
2023/10/25 09:04:59;;;;;;;13.05;1.90;;;;;;;21.47;65.35;95848.91;5092403;28;20024;-30
2023/10/25 09:07:34;;;;;;;10.18;1.63;;;;;;;21.60;64.91;95848.31;5097848;28;20533;-30
2023/10/25 09:10:03;;;;;;;10.43;1.60;;;;;;;21.58;65.06;95850.09;5100607;28;20024;-30
2023/10/25 09:12:28;;;;;;;11.02;1.55;;;;;;;21.57;64.55;95846.56;5100318;28;20016;-30
2023/10/25 09:14:54;;;;;;;6.55;1.50;;;;;;;21.57;64.94;95849.34;5100267;28;20050;-31
2023/10/25 09:17:20;;;;;;;8.55;1.45;;;;;;;21.56;64.91;95853.34;5100193;28;20012;-30
2023/10/25 09:19:48;;;;;;;8.27;1.88;;;;;;;21.52;65.04;95839.06;5100289;28;20027;-30
2023/10/25 09:22:25;;;;;;;7.40;1.80;;;;;;;21.35;65.24;95843.97;5100191;28;20032;-30
2023/10/25 09:24:51;;;;;;;11.02;1.38;;;;;;;21.47;64.61;95853.69;5100360;28;20508;-31
2023/10/25 09:27:19;;;;;;;8.07;1.48;;;;;;;21.47;64.82;95840.63;5100431;28;20031;-30
2023/10/25 09:29:45;;;;;;;8.18;1.77;;;;;;;21.58;64.51;95841.81;5100292;28;20050;-30
2023/10/25 09:32:11;;;;;;;10.95;1.63;;;;;;;21.59;64.89;95838.53;5100131;28;20040;-30
2023/10/25 09:34:37;;;;;;;9.40;1.63;;;;;;;21.48;64.95;95830.34;5100394;28;20023;-30
2023/10/25 09:37:04;;;;;;;6.35;1.15;;;;;;;21.63;65.18;95830.00;5100471;28;20031;-30
2023/10/25 09:39:32;;;;;;;5.55;1.08;;;;;;;21.62;65.39;95837.53;5100067;28;20460;-31
2023/10/25 09:42:02;;;;;;;10.25;1.42;;;;;;;21.71;64.58;95839.19;5100274;28;20016;-30
2023/10/25 09:44:31;;;;;;;7.38;1.58;;;;;;;21.76;63.88;95836.38;5100123;28;20048;-31
2023/10/25 09:46:59;;;;;;;5.65;1.40;;;;;;;21.73;63.90;95837.44;5100127;28;20016;-30
2023/10/25 09:49:29;;;;;;;7.28;1.05;;;;;;;21.69;63.80;95848.00;5099896;28;20085;-30
2023/10/25 09:52:06;;;;;;;10.27;1.35;;;;;;;21.61;63.17;95838.78;5107678;27;20024;-30
2023/10/25 09:54:32;;;;;;;5.22;1.08;;;;;;;21.70;61.91;95846.72;5099995;28;20517;-30
2023/10/25 09:56:59;;;;;;;7.28;1.45;;;;;;;21.59;62.00;95849.56;5107412;28;20850;-31
2023/10/25 09:59:27;;;;;;;6.63;1.40;;;;;;;21.61;61.78;95833.25;5099841;28;20016;-30
2023/10/25 10:01:54;;;;;;;8.75;1.65;;;;;;;21.60;62.21;95836.53;5099842;28;20016;-30
2023/10/25 10:04:28;;;;;;;8.40;1.58;;;;;;;21.55;62.60;95832.53;5100212;28;20020;-31
2023/10/25 10:07:19;;;;;;;9.05;1.20;;;;;;;21.48;62.73;95830.34;5107541;28;20051;-30
2023/10/25 10:10:22;;;;;;;3.95;1.10;;;;;;;21.55;62.47;95835.31;5092262;28;20031;-30
2023/10/25 10:12:48;;;;;;;3.80;1.25;;;;;;;21.78;61.43;95833.84;5103012;28;20403;-30
2023/10/25 10:15:14;;;;;;;5.82;1.20;;;;;;;21.45;62.78;95825.84;5100157;28;20028;-30
2023/10/25 10:17:44;;;;;;;7.75;1.08;;;;;;;21.74;61.96;95830.66;5099378;28;20024;-30
2023/10/25 10:20:23;;;;;;;7.57;1.10;;;;;;;21.72;61.74;95827.66;5096180;28;20031;-30
2023/10/25 10:23:05;;;;;;;6.47;1.40;;;;;;;21.65;62.13;95821.91;5096437;28;20028;-30
2023/10/25 10:25:45;;;;;;;6.32;1.20;;;;;;;21.52;62.11;95819.75;5102396;28;20408;-30
2023/10/25 10:28:11;;;;;;;4.53;1.13;;;;;;;21.63;61.90;95816.94;5097038;28;20498;-30
2023/10/25 10:30:41;;;;;;;3.17;1.05;;;;;;;21.61;62.15;95797.38;5096607;28;20024;-30
2023/10/25 10:33:13;;;;;;;9.30;1.38;;;;;;;21.69;61.74;95817.63;5103335;28;20022;-31
2023/10/25 10:35:48;;;;;;;9.40;1.55;;;;;;;21.65;61.70;95813.66;5103697;28;20479;-30
2023/10/25 10:38:14;;;;;;;7.65;1.00;;;;;;;21.67;61.61;95811.13;5096030;28;20047;-30
2023/10/25 10:40:39;;;;;;;10.07;1.42;;;;;;;21.64;62.05;95804.63;5096401;28;20016;-30
2023/10/25 10:43:06;;;;;;;5.47;1.38;;;;;;;21.62;61.83;95807.16;5096030;28;20028;-30
2023/10/25 10:45:33;;;;;;;8.57;1.38;;;;;;;21.52;62.05;95812.25;5096911;28;20031;-32
2023/10/25 10:48:25;;;;;;;10.52;1.40;;;;;;;21.45;62.10;95820.34;5102432;28;20035;-30
2023/10/25 10:50:51;;;;;;;8.40;0.98;;;;;;;21.58;61.72;95814.22;5103288;28;20031;-30
2023/10/25 10:53:17;;;;;;;10.52;1.83;;;;;;;21.70;61.04;95807.34;5095863;28;20130;-30
2023/10/25 10:55:44;;;;;;;8.02;1.20;;;;;;;21.73;61.22;95815.34;5094797;28;20027;-30
2023/10/25 10:58:10;;;;;;;9.20;1.70;;;;;;;21.69;61.63;95809.34;5095685;28;20020;-30
2023/10/25 11:00:35;;;;;;;3.58;1.05;;;;;;;21.66;62.18;95795.81;5094504;28;20027;-30
2023/10/25 11:03:02;;;;;;;8.30;1.52;;;;;;;21.85;61.36;95785.63;5096062;28;20031;-30
2023/10/25 11:05:29;;;;;;;8.27;1.17;;;;;;;21.57;62.86;95777.59;5095721;28;20016;-30
2023/10/25 11:07:54;;;;;;;4.50;1.10;;;;;;;21.83;61.73;95779.88;5095760;28;20460;-30
2023/10/25 11:10:20;;;;;;;7.25;1.55;;;;;;;21.96;61.73;95768.19;5095900;28;20035;-30
2023/10/25 11:12:46;;;;;;;6.68;1.08;;;;;;;21.91;61.06;95780.03;5096070;28;20488;-30
2023/10/25 11:15:12;;;;;;;6.75;1.20;;;;;;;21.90;61.30;95773.78;5095725;28;20028;-30
2023/10/25 11:17:38;;;;;;;4.18;1.05;;;;;;;21.80;60.99;95776.13;5095320;28;20085;-30
2023/10/25 11:20:05;;;;;;;4.47;1.02;;;;;;;21.82;60.54;95781.88;5095190;28;20024;-30
2023/10/25 11:22:31;;;;;;;7.35;0.90;;;;;;;21.84;59.79;95779.34;5095336;28;20020;-30
2023/10/25 11:24:58;;;;;;;6.55;1.33;;;;;;;21.78;60.30;95773.13;5095373;28;20019;-30
2023/10/25 11:27:31;;;;;;;9.55;1.98;;;;;;;21.68;60.79;95779.50;5096028;28;20220;-30
2023/10/25 11:29:57;;;;;;;9.82;1.55;;;;;;;21.77;60.63;95771.63;5095399;28;20055;-30